createdAt,value
2023-05-02T00:02:21.083Z,38.60
2023-05-02T00:04:48.652Z,34.47
2023-05-02T00:07:16.065Z,32.10
2023-05-02T00:09:43.625Z,31.83
2023-05-02T00:12:10.822Z,33.67
2023-05-02T00:14:38.405Z,36.42
2023-05-02T00:17:05.826Z,36.08
2023-05-02T00:19:37.848Z,38.55
2023-05-02T00:22:05.053Z,34.83
2023-05-02T00:24:33.299Z,36.45
2023-05-02T00:27:00.913Z,34.65
2023-05-02T00:29:28.470Z,34.90
2023-05-02T00:31:55.636Z,33.58
2023-05-02T00:34:23.191Z,35.75
2023-05-02T00:36:50.566Z,42.70
2023-05-02T00:39:18.082Z,50.75
2023-05-02T00:41:45.262Z,52.67
2023-05-02T00:44:14.937Z,46.53
2023-05-02T00:46:44.038Z,27.92
2023-05-02T00:49:11.537Z,24.95
2023-05-02T00:51:42.479Z,30.08
2023-05-02T00:54:11.106Z,27.98
2023-05-02T00:56:38.559Z,31.55
2023-05-02T00:59:08.937Z,40.03
2023-05-02T01:02:14.674Z,47.05
2023-05-02T01:05:17.175Z,44.50
2023-05-02T01:07:57.530Z,38.55
2023-05-02T01:10:42.915Z,39.83
2023-05-02T01:13:17.562Z,38.92
2023-05-02T01:15:48.121Z,47.13
2023-05-02T01:18:18.672Z,48.97
2023-05-02T01:20:50.869Z,42.85
2023-05-02T01:23:29.613Z,45.08
2023-05-02T01:26:05.843Z,32.70
2023-05-02T01:29:00.439Z,38.92
2023-05-02T01:31:42.964Z,34.13
2023-05-02T01:34:11.441Z,34.55
2023-05-02T01:36:44.050Z,36.90
2023-05-02T01:39:18.832Z,34.85
2023-05-02T01:41:52.334Z,37.30
2023-05-02T01:44:22.512Z,41.97
2023-05-02T01:46:52.139Z,36.63
2023-05-02T01:49:19.998Z,35.55
2023-05-02T01:51:50.428Z,37.85
2023-05-02T01:54:20.360Z,39.22
2023-05-02T01:56:49.419Z,46.15
2023-05-02T01:59:20.217Z,47.03
2023-05-02T02:01:50.322Z,42.00
2023-05-02T02:04:19.986Z,48.30
2023-05-02T02:06:53.855Z,44.13
2023-05-02T02:09:21.756Z,40.65
2023-05-02T02:12:06.303Z,37.50
2023-05-02T02:14:48.455Z,38.13
2023-05-02T02:17:25.900Z,38.28
2023-05-02T02:19:55.213Z,35.97
2023-05-02T02:22:26.921Z,34.97
2023-05-02T02:24:55.270Z,39.20
2023-05-02T02:27:22.872Z,34.17
2023-05-02T02:29:50.254Z,34.53
2023-05-02T02:32:17.686Z,38.17
2023-05-02T02:34:45.090Z,40.78
2023-05-02T02:37:19.712Z,37.70
2023-05-02T02:40:09.807Z,41.47
2023-05-02T02:42:50.208Z,39.00
2023-05-02T02:45:38.611Z,47.10
2023-05-02T02:48:21.382Z,41.53
2023-05-02T02:51:06.896Z,36.05
2023-05-02T02:53:56.752Z,36.67
2023-05-02T02:56:46.000Z,31.42
2023-05-02T02:59:19.519Z,31.42
2023-05-02T03:01:54.013Z,32.30
2023-05-02T03:04:23.176Z,28.67
2023-05-02T03:06:50.946Z,32.55
2023-05-02T03:09:19.139Z,39.10
2023-05-02T03:11:48.505Z,31.15
2023-05-02T03:14:16.608Z,37.40
2023-05-02T03:16:45.153Z,32.90
2023-05-02T03:19:15.734Z,35.20
2023-05-02T03:21:43.648Z,42.92
2023-05-02T03:24:19.224Z,45.25
2023-05-02T03:26:48.197Z,36.47
2023-05-02T03:29:19.484Z,43.97
2023-05-02T03:31:46.789Z,33.40
2023-05-02T03:34:14.324Z,35.80
2023-05-02T03:36:43.014Z,29.13
2023-05-02T03:39:11.152Z,32.47
2023-05-02T03:41:42.594Z,35.40
2023-05-02T03:44:14.085Z,42.72
2023-05-02T03:46:41.956Z,32.63
2023-05-02T03:49:12.303Z,37.35
2023-05-02T03:51:42.258Z,34.88
2023-05-02T03:54:10.214Z,35.72
2023-05-02T03:56:42.717Z,41.03
2023-05-02T03:59:22.880Z,32.47
2023-05-02T04:01:51.639Z,31.73
2023-05-02T04:04:22.610Z,37.75
2023-05-02T04:06:52.420Z,36.33
2023-05-02T04:09:25.349Z,33.20
2023-05-02T04:12:00.691Z,29.63
2023-05-02T04:14:28.603Z,30.73
2023-05-02T04:16:57.304Z,32.50
2023-05-02T04:19:39.684Z,38.50
2023-05-02T04:22:07.128Z,38.90
2023-05-02T04:24:38.429Z,44.60
2023-05-02T04:27:05.752Z,41.60
2023-05-02T04:29:33.644Z,39.80
2023-05-02T04:32:01.643Z,45.53
2023-05-02T04:34:30.561Z,36.38
2023-05-02T04:36:57.832Z,28.40
2023-05-02T04:39:26.910Z,31.25
2023-05-02T04:42:07.642Z,36.00
2023-05-02T04:44:42.321Z,31.08
2023-05-02T04:47:10.033Z,33.17
2023-05-02T04:49:37.511Z,40.78
2023-05-02T04:52:04.956Z,37.40
2023-05-02T04:54:34.832Z,37.97
2023-05-02T04:57:03.814Z,98.95
2023-05-02T04:59:35.171Z,105.28
2023-05-02T05:02:03.829Z,133.57
2023-05-02T05:04:31.736Z,90.28
2023-05-02T05:06:59.107Z,83.03
2023-05-02T05:09:30.507Z,79.78
2023-05-02T05:11:57.712Z,52.05
2023-05-02T05:14:25.552Z,39.67
2023-05-02T05:16:54.994Z,46.22
2023-05-02T05:19:23.348Z,36.85
2023-05-02T05:21:51.176Z,42.22
2023-05-02T05:24:20.161Z,43.95
2023-05-02T05:26:47.969Z,38.55
2023-05-02T05:29:15.827Z,34.78
2023-05-02T05:31:44.174Z,52.42
2023-05-02T05:34:14.990Z,33.10
2023-05-02T05:36:43.308Z,38.80
2023-05-02T05:39:13.434Z,38.97
2023-05-02T05:41:43.439Z,35.97
2023-05-02T05:44:12.607Z,42.58
2023-05-02T05:46:39.922Z,40.92
2023-05-02T05:49:10.065Z,49.88
2023-05-02T05:51:37.665Z,44.05
2023-05-02T05:54:05.249Z,41.53
2023-05-02T05:56:32.991Z,46.35
2023-05-02T05:59:09.432Z,40.53
2023-05-02T06:01:38.323Z,34.70
2023-05-02T06:04:07.604Z,39.75
2023-05-02T06:06:38.255Z,43.42
2023-05-02T06:09:06.164Z,68.70
2023-05-02T06:11:33.946Z,43.35
2023-05-02T06:14:01.996Z,22.92
2023-05-02T06:16:29.203Z,31.85
2023-05-02T06:18:56.857Z,19.55
2023-05-02T06:21:24.087Z,17.50
2023-05-02T06:23:51.705Z,18.33
2023-05-02T06:26:18.958Z,18.17
2023-05-02T06:28:46.532Z,15.45
2023-05-02T06:31:13.746Z,12.20
2023-05-02T06:33:41.323Z,11.13
2023-05-02T06:36:08.700Z,14.45
2023-05-02T06:38:36.235Z,12.00
2023-05-02T06:41:03.440Z,7.72
2023-05-02T06:43:31.041Z,15.00
2023-05-02T06:45:58.986Z,17.70
2023-05-02T06:48:26.519Z,16.33
2023-05-02T06:50:54.481Z,16.83
2023-05-02T06:53:22.072Z,12.93
2023-05-02T06:55:49.967Z,11.75
2023-05-02T06:58:17.553Z,13.13
2023-05-02T07:00:44.804Z,15.63
2023-05-02T07:03:13.288Z,15.80
2023-05-02T07:05:40.646Z,16.02
2023-05-02T07:08:09.220Z,12.55
2023-05-02T07:10:36.762Z,11.52
2023-05-02T07:13:04.431Z,17.90
2023-05-02T07:15:31.785Z,9.52
2023-05-02T07:17:59.419Z,17.95
2023-05-02T07:20:26.733Z,28.80
2023-05-02T07:25:45.650Z,12.52
2023-05-02T07:28:13.213Z,16.70
2023-05-02T07:30:40.428Z,14.80
2023-05-02T07:33:08.240Z,10.48
2023-05-02T07:35:35.790Z,17.13
2023-05-02T07:38:03.299Z,17.48
2023-05-02T07:40:30.643Z,15.65
2023-05-02T07:43:01.197Z,11.40
2023-05-02T07:45:29.757Z,15.25
2023-05-02T07:47:57.408Z,15.25
2023-05-02T07:50:24.768Z,18.15
2023-05-02T07:52:53.061Z,19.30
2023-05-02T07:55:21.714Z,15.73
2023-05-02T07:57:49.281Z,17.05
2023-05-02T08:00:17.091Z,9.43
2023-05-02T08:02:46.500Z,7.47
2023-05-02T08:05:13.932Z,10.38
2023-05-02T08:07:41.615Z,8.27
2023-05-02T08:10:11.574Z,5.60
2023-05-02T08:12:42.148Z,10.20
2023-05-02T08:15:12.702Z,7.07
2023-05-02T08:17:40.766Z,8.57
2023-05-02T08:20:08.570Z,2.80
2023-05-02T08:22:36.270Z,10.73
2023-05-02T08:25:06.140Z,6.25
2023-05-02T08:27:36.351Z,8.20
2023-05-02T08:30:09.168Z,8.18
2023-05-02T08:32:38.779Z,11.55
2023-05-02T08:35:07.372Z,19.65
2023-05-02T08:37:37.134Z,9.90
2023-05-02T08:40:06.000Z,13.00
2023-05-02T08:42:34.973Z,8.68
2023-05-02T08:45:02.933Z,13.10
2023-05-02T08:47:32.662Z,6.65
2023-05-02T08:50:01.166Z,6.05
2023-05-02T08:52:30.752Z,5.95
2023-05-02T08:55:01.195Z,6.95
2023-05-02T08:57:32.473Z,6.13
2023-05-02T08:59:59.803Z,2.83
2023-05-02T09:02:43.846Z,5.70
2023-05-02T09:05:12.832Z,9.38
2023-05-02T09:07:48.706Z,7.97
2023-05-02T09:10:16.360Z,9.13
2023-05-02T09:12:44.191Z,9.23
2023-05-02T09:15:11.881Z,4.50
2023-05-02T09:17:41.388Z,4.72
2023-05-02T09:20:09.732Z,6.30
2023-05-02T09:22:38.724Z,5.57
2023-05-02T09:25:07.668Z,6.10
2023-05-02T09:27:52.570Z,4.15
2023-05-02T09:30:24.420Z,9.98
2023-05-02T09:32:56.959Z,8.90
2023-05-02T09:35:24.944Z,6.93
2023-05-02T09:37:59.543Z,3.88
2023-05-02T09:40:28.237Z,11.05
2023-05-02T09:42:56.696Z,17.15
2023-05-02T09:45:26.166Z,5.20
2023-05-02T09:47:54.239Z,3.35
2023-05-02T09:50:39.186Z,3.40
2023-05-02T09:53:09.991Z,3.63
2023-05-02T09:55:37.803Z,2.38
2023-05-02T09:58:06.902Z,10.80
2023-05-02T10:00:44.900Z,9.25
2023-05-02T10:03:20.694Z,7.65
2023-05-02T10:08:19.042Z,6.85
2023-05-02T10:10:54.019Z,4.25
2023-05-02T10:13:24.628Z,5.72
2023-05-02T10:16:00.976Z,13.40
2023-05-02T10:18:39.187Z,5.35
2023-05-02T10:21:10.887Z,3.25
2023-05-02T10:23:45.996Z,3.83
2023-05-02T10:26:17.692Z,4.32
2023-05-02T10:28:46.222Z,6.07
2023-05-02T10:31:15.159Z,3.05
2023-05-02T10:33:46.365Z,3.60
2023-05-02T10:36:14.018Z,3.80
2023-05-02T10:38:42.712Z,3.30
2023-05-02T10:41:15.007Z,5.32
2023-05-02T10:43:47.977Z,21.48
2023-05-02T10:46:34.587Z,3.17
2023-05-02T10:49:08.543Z,5.72
2023-05-02T10:51:39.365Z,5.63
2023-05-02T10:54:23.914Z,4.45
2023-05-02T10:57:06.770Z,3.55
2023-05-02T10:59:38.710Z,5.13
2023-05-02T11:02:28.404Z,13.13
2023-05-02T11:05:06.674Z,14.20
2023-05-02T11:07:39.392Z,12.20
2023-05-02T11:10:22.150Z,10.25
2023-05-02T11:12:54.056Z,6.10
2023-05-02T11:15:32.917Z,5.93
2023-05-02T11:18:08.040Z,6.03
2023-05-02T11:20:37.474Z,2.60
2023-05-02T11:23:22.954Z,4.20
2023-05-02T11:25:52.735Z,2.15
2023-05-02T11:28:38.681Z,6.85
2023-05-02T11:31:30.845Z,8.20
2023-05-02T11:34:03.093Z,4.35
2023-05-02T11:36:33.947Z,7.60
2023-05-02T11:39:08.127Z,5.07
2023-05-02T11:41:47.139Z,7.07
2023-05-02T11:44:14.662Z,7.38
2023-05-02T11:46:42.888Z,10.38
2023-05-02T11:49:14.893Z,6.65
2023-05-02T11:51:43.131Z,3.40
2023-05-02T11:54:19.358Z,7.80
2023-05-02T11:56:48.396Z,8.82
2023-05-02T11:59:15.766Z,7.40
2023-05-02T12:01:51.283Z,9.43
2023-05-02T12:04:22.241Z,3.42
2023-05-02T12:06:58.915Z,3.83
2023-05-02T12:09:26.622Z,4.03
2023-05-02T12:11:55.092Z,2.53
2023-05-02T12:14:33.779Z,4.40
2023-05-02T12:17:04.532Z,4.72
2023-05-02T12:19:37.374Z,7.78
2023-05-02T12:22:06.419Z,5.10
2023-05-02T12:24:34.572Z,4.22
2023-05-02T12:27:13.954Z,4.72
2023-05-02T12:29:41.930Z,7.65
2023-05-02T12:32:10.821Z,8.32
2023-05-02T12:34:39.232Z,2.30
2023-05-02T12:37:08.348Z,7.65
2023-05-02T12:39:43.631Z,2.97
2023-05-02T12:42:16.893Z,3.75
2023-05-02T12:44:46.343Z,3.78
2023-05-02T12:47:15.888Z,3.03
2023-05-02T12:49:57.909Z,4.15
2023-05-02T12:52:47.144Z,5.72
2023-05-02T12:55:22.019Z,3.78
2023-05-02T12:57:49.784Z,6.65
2023-05-02T13:00:18.421Z,4.50
2023-05-02T13:02:47.714Z,8.48
2023-05-02T13:05:16.017Z,4.20
2023-05-02T13:07:43.735Z,3.45
2023-05-02T13:10:14.776Z,2.38
2023-05-02T13:12:44.434Z,4.88
2023-05-02T13:15:13.624Z,6.53
2023-05-02T13:17:41.657Z,4.53
2023-05-02T13:20:09.722Z,5.07
2023-05-02T13:22:40.046Z,3.60
2023-05-02T13:25:09.057Z,2.45
2023-05-02T13:27:37.745Z,4.82
2023-05-02T13:30:08.766Z,2.95
2023-05-02T13:32:36.883Z,10.45
2023-05-02T13:35:04.391Z,10.52
2023-05-02T13:37:32.595Z,5.82
2023-05-02T13:40:00.134Z,5.00
2023-05-02T13:42:28.007Z,6.07
2023-05-02T13:44:55.235Z,5.88
2023-05-02T13:47:22.962Z,2.00
2023-05-02T13:49:50.707Z,6.78
2023-05-02T13:52:18.486Z,6.18
2023-05-02T13:54:45.884Z,2.72
2023-05-02T13:57:13.579Z,8.07
2023-05-02T13:59:41.122Z,16.60
2023-05-02T14:02:09.023Z,15.30
2023-05-02T14:04:36.336Z,3.60
2023-05-02T14:07:04.108Z,3.33
2023-05-02T14:09:32.191Z,3.10
2023-05-02T14:12:00.135Z,4.40
2023-05-02T14:14:27.533Z,3.83
2023-05-02T14:16:58.651Z,6.75
2023-05-02T14:19:28.882Z,3.30
2023-05-02T14:21:57.311Z,8.85
2023-05-02T14:24:24.752Z,6.15
2023-05-02T14:26:52.330Z,7.68
2023-05-02T14:29:20.063Z,2.90
2023-05-02T14:31:47.984Z,11.30
2023-05-02T14:34:15.720Z,13.52
2023-05-02T14:36:43.690Z,13.30
2023-05-02T14:39:13.275Z,14.45
2023-05-02T14:41:40.958Z,6.63
2023-05-02T14:44:08.380Z,5.07
2023-05-02T14:46:36.095Z,8.35
2023-05-02T14:49:03.419Z,11.00
2023-05-02T14:51:32.196Z,7.30
2023-05-02T14:54:00.172Z,2.58
2023-05-02T14:56:28.371Z,2.85
2023-05-02T14:58:55.821Z,5.88
2023-05-02T15:01:23.751Z,5.50
2023-05-02T15:04:05.927Z,5.03
2023-05-02T15:06:36.427Z,2.97
2023-05-02T15:09:05.243Z,5.85
2023-05-02T15:11:33.143Z,4.13
2023-05-02T15:14:00.531Z,7.18
2023-05-02T15:16:28.230Z,6.95
2023-05-02T15:18:55.901Z,9.05
2023-05-02T15:21:23.785Z,6.32
2023-05-02T15:23:51.186Z,6.88
2023-05-02T15:26:19.041Z,8.95
2023-05-02T15:28:46.415Z,6.90
2023-05-02T15:31:15.198Z,6.13
2023-05-02T15:33:44.565Z,9.00
2023-05-02T15:36:14.604Z,6.47
2023-05-02T15:38:43.153Z,10.50
2023-05-02T15:41:11.782Z,4.97
2023-05-02T15:43:39.172Z,4.80
2023-05-02T15:46:06.772Z,9.57
2023-05-02T15:48:35.087Z,6.03
2023-05-02T15:51:09.860Z,11.18
2023-05-02T15:53:39.776Z,6.25
2023-05-02T15:56:13.531Z,10.68
2023-05-02T15:58:40.954Z,11.77
2023-05-02T16:01:08.716Z,10.77
2023-05-02T16:03:36.786Z,7.40
2023-05-02T16:06:07.942Z,10.82
2023-05-02T16:08:36.142Z,11.80
2023-05-02T16:11:06.008Z,12.73
2023-05-02T16:13:33.406Z,12.95
2023-05-02T16:16:01.128Z,10.90
2023-05-02T16:18:28.732Z,7.30
2023-05-02T16:20:59.996Z,11.05
2023-05-02T16:23:27.466Z,8.98
2023-05-02T16:25:59.177Z,8.93
2023-05-02T16:28:26.717Z,10.63
2023-05-02T16:30:55.713Z,15.52
2023-05-02T16:33:23.375Z,22.63
2023-05-02T16:36:01.944Z,16.75
2023-05-02T16:38:29.763Z,8.85
2023-05-02T16:40:57.788Z,8.93
2023-05-02T16:43:25.521Z,13.98
2023-05-02T16:46:04.244Z,15.07
2023-05-02T16:48:32.470Z,16.88
2023-05-02T16:51:03.290Z,14.88
2023-05-02T16:53:33.682Z,15.45
2023-05-02T16:56:02.009Z,20.70
2023-05-02T17:06:27.109Z,17.88
2023-05-02T17:08:54.807Z,17.63
2023-05-02T17:11:23.230Z,14.57
2023-05-02T17:13:52.815Z,14.85
2023-05-02T17:16:23.118Z,13.55
2023-05-02T17:18:50.952Z,18.58
2023-05-02T17:21:18.384Z,7.68
2023-05-02T17:23:46.157Z,6.00
2023-05-02T17:26:16.736Z,8.38
2023-05-02T17:28:45.219Z,6.88
2023-05-02T17:31:13.282Z,7.32
2023-05-02T17:33:42.556Z,11.70
2023-05-02T17:36:10.010Z,8.80
2023-05-02T17:38:37.912Z,8.27
2023-05-02T17:41:06.232Z,8.70
2023-05-02T17:43:33.932Z,7.78
2023-05-02T17:46:07.896Z,6.82
2023-05-02T17:48:37.101Z,8.10
2023-05-02T17:51:05.093Z,4.75
2023-05-02T17:53:33.878Z,6.40
2023-05-02T17:56:03.464Z,6.88
2023-05-02T17:58:32.161Z,4.25
2023-05-02T18:01:10.393Z,4.68
2023-05-02T18:03:38.975Z,8.27
2023-05-02T18:06:06.797Z,8.63
2023-05-02T18:08:34.704Z,6.28
2023-05-02T18:11:05.138Z,4.40
2023-05-02T18:13:33.235Z,3.30
2023-05-02T18:16:04.988Z,6.90
2023-05-02T18:18:33.420Z,5.75
2023-05-02T18:21:09.891Z,6.40
2023-05-02T18:23:37.941Z,6.78
2023-05-02T18:26:12.126Z,6.07
2023-05-02T18:28:42.709Z,6.30
2023-05-02T18:31:17.906Z,7.78
2023-05-02T18:33:47.166Z,8.13
2023-05-02T18:36:19.371Z,12.65
2023-05-02T18:38:47.280Z,10.95
2023-05-02T18:41:14.536Z,15.98
2023-05-02T18:43:42.355Z,10.70
2023-05-02T18:46:09.956Z,11.10
2023-05-02T18:48:37.667Z,12.60
2023-05-02T18:51:05.320Z,8.80
2023-05-02T18:53:33.798Z,9.00
2023-05-02T18:56:01.356Z,12.45
2023-05-02T18:58:29.241Z,9.68
2023-05-02T19:00:57.523Z,12.45
2023-05-02T19:03:27.034Z,7.95
2023-05-02T19:05:54.481Z,8.10
2023-05-02T19:08:24.078Z,11.45
2023-05-02T19:10:51.759Z,27.38
2023-05-02T19:13:20.573Z,14.00
2023-05-02T19:15:48.450Z,11.77
2023-05-02T19:18:17.598Z,8.70
2023-05-02T19:20:46.803Z,21.05
2023-05-02T19:23:20.298Z,9.10
2023-05-02T19:25:47.953Z,18.98
2023-05-02T19:28:18.686Z,9.13
2023-05-02T19:30:47.093Z,7.50
2023-05-02T19:33:14.793Z,10.57
2023-05-02T19:35:42.612Z,7.47
2023-05-02T19:38:10.244Z,24.25
2023-05-02T19:40:37.502Z,8.88
2023-05-02T19:43:05.205Z,17.20
2023-05-02T19:52:04.669Z,10.73
2023-05-02T19:54:33.564Z,19.63
2023-05-02T19:57:02.963Z,9.30
2023-05-02T19:59:30.614Z,12.93
2023-05-02T20:01:58.954Z,23.00
2023-05-02T20:04:27.957Z,21.00
2023-05-02T20:06:55.437Z,13.57
2023-05-02T20:09:23.203Z,12.35
2023-05-02T20:11:50.351Z,19.38
2023-05-02T20:14:19.046Z,23.05
2023-05-02T20:16:46.527Z,16.63
2023-05-02T20:19:14.297Z,15.32
2023-05-02T20:21:41.607Z,11.02
2023-05-02T20:24:09.193Z,10.60
2023-05-02T20:26:37.550Z,11.18
2023-05-02T20:29:05.240Z,12.25
2023-05-02T20:31:32.719Z,13.95
2023-05-02T20:34:00.563Z,12.07
2023-05-02T20:36:29.545Z,11.82
2023-05-02T20:38:58.035Z,14.02
2023-05-02T20:41:27.017Z,14.27
2023-05-02T20:43:55.414Z,15.98
2023-05-02T20:46:25.938Z,21.23
2023-05-02T20:48:53.865Z,13.93
2023-05-02T20:51:21.690Z,11.73
2023-05-02T20:53:49.348Z,13.98
2023-05-02T20:56:16.732Z,14.68
2023-05-02T20:58:44.488Z,15.00
2023-05-02T21:01:12.377Z,16.15
2023-05-02T21:03:41.366Z,12.35
2023-05-02T21:06:10.313Z,13.00
2023-05-02T21:08:38.073Z,11.38
2023-05-02T21:11:15.291Z,11.43
2023-05-02T21:13:43.932Z,12.93
2023-05-02T21:16:18.844Z,13.85
2023-05-02T21:18:47.683Z,31.17
2023-05-02T21:21:15.135Z,48.42
2023-05-02T21:23:42.828Z,60.92
2023-05-02T21:26:10.265Z,31.00
2023-05-02T21:28:38.901Z,26.38
2023-05-02T21:31:07.936Z,13.20
2023-05-02T21:33:36.000Z,12.25
2023-05-02T21:36:03.849Z,15.05
2023-05-02T21:38:31.552Z,11.85
2023-05-02T21:41:03.425Z,12.63
2023-05-02T21:43:34.256Z,12.52
2023-05-02T21:46:01.820Z,24.80
2023-05-02T21:48:29.751Z,27.00
2023-05-02T21:50:57.132Z,37.05
2023-05-02T21:53:25.019Z,36.38
2023-05-02T21:55:52.916Z,24.17
2023-05-02T21:58:20.709Z,18.25
2023-05-02T22:00:48.082Z,18.45
2023-05-02T22:03:16.003Z,18.67
2023-05-02T22:05:45.670Z,21.38
2023-05-02T22:08:13.699Z,22.17
2023-05-02T22:10:42.950Z,22.25
2023-05-02T22:13:12.858Z,30.83
2023-05-02T22:15:43.210Z,34.28
2023-05-02T22:18:11.054Z,45.70
2023-05-02T22:20:38.291Z,42.90
2023-05-02T22:23:06.029Z,41.28
2023-05-02T22:25:33.312Z,26.67
2023-05-02T22:28:04.141Z,22.05
2023-05-02T22:30:31.655Z,23.05
2023-05-02T22:32:59.263Z,16.30
2023-05-02T22:35:26.911Z,12.18
2023-05-02T22:37:54.660Z,11.13
2023-05-02T22:40:21.857Z,14.48
2023-05-02T22:42:51.527Z,13.80
2023-05-02T22:45:18.863Z,12.52
2023-05-02T22:47:46.478Z,12.60
2023-05-02T22:50:14.517Z,15.00
2023-05-02T22:52:42.592Z,15.00
2023-05-02T22:55:10.106Z,13.57
2023-05-02T22:57:38.094Z,17.17
2023-05-02T23:00:07.591Z,15.02
2023-05-02T23:02:36.110Z,14.02
2023-05-02T23:05:07.237Z,17.33
2023-05-02T23:07:34.831Z,19.65
2023-05-02T23:10:02.350Z,26.38
2023-05-02T23:12:30.261Z,23.00
2023-05-02T23:14:58.158Z,25.38
2023-05-02T23:17:26.011Z,25.05
2023-05-02T23:19:53.150Z,21.10
2023-05-02T23:22:20.655Z,22.02
2023-05-02T23:24:48.196Z,20.23
2023-05-02T23:27:15.840Z,18.02
2023-05-02T23:29:43.069Z,17.70
2023-05-02T23:32:13.163Z,13.80
2023-05-02T23:34:41.454Z,14.88
2023-05-02T23:37:09.502Z,21.10
2023-05-02T23:39:36.772Z,15.20
2023-05-02T23:42:04.589Z,13.35
2023-05-02T23:44:31.869Z,17.40
2023-05-02T23:47:00.226Z,16.83
2023-05-02T23:49:27.543Z,16.67
2023-05-02T23:51:55.030Z,14.55
2023-05-02T23:54:25.282Z,19.80
2023-05-02T23:56:53.762Z,19.63
2023-05-02T23:59:20.868Z,18.13
